Time;durP1;ratioP1;P1;durP2;ratioP2;P2;SDS_P1;SDS_P2;PMS_P1;PMS_P2;Temp;Humidity;BMP_temperature;BMP_pressure;BME280_temperature;BME280_humidity;BME280_pressure;Samples;Min_cycle;Max_cycle;Signal;HPM_P1;HPM_P2
2022/04/12 00:01:42;;;;;;;41.53;22.13;;;8.70;99.90;;;;;;6155015;23;20067;-88
2022/04/12 00:04:08;;;;;;;42.20;21.42;;;8.70;99.90;;;;;;6155432;23;20006;-88
2022/04/12 00:06:34;;;;;;;44.58;21.83;;;8.80;99.90;;;;;;6155106;23;20009;-88
2022/04/12 00:08:59;;;;;;;43.05;22.00;;;8.80;99.90;;;;;;6154672;23;20445;-88
2022/04/12 00:11:26;;;;;;;39.85;21.27;;;8.80;99.90;;;;;;6154731;23;20449;-88
2022/04/12 00:13:51;;;;;;;39.75;19.73;;;8.70;99.90;;;;;;6155065;23;20033;-88
2022/04/12 00:16:17;;;;;;;46.58;23.13;;;8.70;99.90;;;;;;6155303;23;20024;-88
2022/04/12 00:21:27;;;;;;;42.30;22.65;;;8.70;99.90;;;;;;6157675;23;20020;-89
2022/04/12 00:23:56;;;;;;;46.35;22.35;;;8.60;99.90;;;;;;6156930;23;20002;-89
2022/04/12 00:26:21;;;;;;;40.38;19.75;;;8.60;99.90;;;;;;6154637;23;20024;-89
2022/04/12 00:28:49;;;;;;;42.40;22.55;;;8.60;99.90;;;;;;6155237;23;20274;-89
2022/04/12 00:31:15;;;;;;;45.67;23.25;;;8.60;99.90;;;;;;6155453;23;20010;-88
2022/04/12 00:33:41;;;;;;;35.58;20.67;;;8.60;99.90;;;;;;6155406;23;20012;-88
2022/04/12 00:36:08;;;;;;;48.65;22.60;;;8.60;99.90;;;;;;6159594;23;20001;-88
2022/04/12 00:38:35;;;;;;;41.88;21.98;;;8.50;99.90;;;;;;6155164;23;20021;-87
2022/04/12 00:41:04;;;;;;;48.20;24.38;;;8.50;99.90;;;;;;6156831;23;20520;-87
2022/04/12 00:43:32;;;;;;;45.53;23.33;;;8.40;99.90;;;;;;6164305;23;20012;-88
2022/04/12 00:46:00;;;;;;;46.72;23.20;;;8.40;99.90;;;;;;6163791;23;20009;-88
2022/04/12 00:48:35;;;;;;;47.13;23.77;;;8.40;99.90;;;;;;6162763;23;20017;-87
2022/04/12 00:51:01;;;;;;;49.78;25.63;;;8.40;99.90;;;;;;6163790;23;20006;-88
2022/04/12 00:53:28;;;;;;;48.95;25.60;;;8.40;99.90;;;;;;6159551;23;20048;-88
2022/04/12 00:55:59;;;;;;;48.80;23.75;;;8.40;99.90;;;;;;6161763;23;20009;-88
2022/04/12 00:58:25;;;;;;;46.22;23.20;;;8.40;99.90;;;;;;6166133;23;20093;-88
2022/04/12 01:00:53;;;;;;;45.17;22.88;;;8.40;99.90;;;;;;6167013;23;20002;-87
2022/04/12 01:03:19;;;;;;;49.10;24.00;;;8.30;99.90;;;;;;6165686;23;20006;-87
2022/04/12 01:05:49;;;;;;;40.42;20.33;;;8.30;99.90;;;;;;6163099;23;20459;-87
2022/04/12 01:08:17;;;;;;;47.08;22.98;;;8.30;99.90;;;;;;6165974;23;20010;-87
2022/04/12 01:10:44;;;;;;;49.10;23.88;;;8.30;99.90;;;;;;6162831;23;20440;-87
2022/04/12 01:13:09;;;;;;;54.53;24.75;;;8.30;99.90;;;;;;6162553;23;20092;-87
2022/04/12 01:15:35;;;;;;;51.75;24.27;;;8.30;99.90;;;;;;6163925;23;20005;-87
2022/04/12 01:18:01;;;;;;;43.88;22.40;;;8.30;99.90;;;;;;6162740;23;20013;-87
2022/04/12 01:20:30;;;;;;;42.40;22.38;;;8.30;99.90;;;;;;6162229;23;20053;-88
2022/04/12 01:23:01;;;;;;;45.55;23.52;;;8.30;99.90;;;;;;6163228;23;20021;-86
2022/04/12 01:25:28;;;;;;;47.33;24.50;;;8.30;99.90;;;;;;6175458;23;20176;-88
2022/04/12 01:27:54;;;;;;;44.88;24.60;;;8.30;99.90;;;;;;6156203;23;20028;-87
2022/04/12 01:30:19;;;;;;;51.78;25.67;;;8.30;99.90;;;;;;6156115;23;20088;-87
2022/04/12 01:32:45;;;;;;;45.30;21.83;;;8.30;99.90;;;;;;6155177;23;20029;-87
2022/04/12 01:35:11;;;;;;;50.35;22.92;;;8.30;99.90;;;;;;6155452;23;20041;-87
2022/04/12 01:37:37;;;;;;;43.22;24.58;;;8.30;99.90;;;;;;6155483;23;20010;-87
2022/04/12 01:40:04;;;;;;;47.08;25.23;;;8.30;99.90;;;;;;6154972;23;20009;-87
2022/04/12 01:42:30;;;;;;;49.10;24.98;;;8.30;99.90;;;;;;6154714;23;19998;-88
2022/04/12 01:44:56;;;;;;;55.90;24.40;;;8.30;99.90;;;;;;6154873;23;20017;-87
2022/04/12 01:47:21;;;;;;;48.40;25.38;;;8.30;99.90;;;;;;6154948;23;20020;-87
2022/04/12 01:49:47;;;;;;;52.35;23.02;;;8.40;99.90;;;;;;6154064;23;20009;-87
2022/04/12 01:52:15;;;;;;;46.90;24.83;;;8.40;99.90;;;;;;6154600;23;20012;-87
2022/04/12 01:54:41;;;;;;;38.83;23.00;;;8.40;99.90;;;;;;6155014;23;20009;-87
2022/04/12 01:57:06;;;;;;;51.08;25.85;;;8.40;99.90;;;;;;6155271;23;20021;-87
2022/04/12 01:59:32;;;;;;;48.00;23.95;;;8.40;99.90;;;;;;6155422;23;20093;-87
2022/04/12 02:01:58;;;;;;;42.65;24.10;;;8.40;99.90;;;;;;6155453;23;20006;-87
2022/04/12 02:04:24;;;;;;;47.08;25.85;;;8.40;99.90;;;;;;6154796;23;20008;-87
2022/04/12 02:06:49;;;;;;;54.83;26.20;;;8.30;99.90;;;;;;6154493;23;20048;-87
2022/04/12 02:09:15;;;;;;;51.45;26.83;;;8.30;99.90;;;;;;6154180;23;20063;-87
2022/04/12 02:11:41;;;;;;;50.47;25.75;;;8.30;99.90;;;;;;6154501;23;20064;-86
2022/04/12 02:14:09;;;;;;;47.20;25.60;;;8.40;99.90;;;;;;6154247;23;20097;-87
2022/04/12 02:16:35;;;;;;;45.20;25.55;;;8.40;99.90;;;;;;6154350;23;20327;-86
2022/04/12 02:19:01;;;;;;;56.33;26.88;;;8.30;99.90;;;;;;6154060;23;20008;-87
2022/04/12 02:21:26;;;;;;;50.53;26.48;;;8.40;99.90;;;;;;6154224;23;20013;-87
2022/04/12 02:23:52;;;;;;;44.95;25.65;;;8.30;99.90;;;;;;6153891;23;20342;-87
2022/04/12 02:26:18;;;;;;;53.65;24.83;;;8.30;99.90;;;;;;6154222;23;20020;-87
2022/04/12 02:28:43;;;;;;;49.45;23.50;;;8.30;99.90;;;;;;6154222;23;20005;-86
2022/04/12 02:31:09;;;;;;;46.55;22.75;;;8.30;99.90;;;;;;6154482;23;20010;-88
2022/04/12 02:33:35;;;;;;;47.33;24.23;;;8.20;99.90;;;;;;6154087;23;20006;-87
2022/04/12 02:36:00;;;;;;;51.30;27.45;;;8.20;99.90;;;;;;6154183;23;20005;-87
2022/04/12 02:38:26;;;;;;;51.13;26.77;;;8.30;99.90;;;;;;6154564;23;20021;-86
2022/04/12 02:40:55;;;;;;;50.22;26.55;;;8.30;99.90;;;;;;6154317;23;20006;-89
2022/04/12 02:43:20;;;;;;;50.40;25.08;;;8.30;99.90;;;;;;6154398;23;20006;-89
2022/04/12 02:45:47;;;;;;;42.25;21.65;;;8.30;99.90;;;;;;6154231;23;20504;-88
2022/04/12 02:48:13;;;;;;;40.45;21.55;;;8.20;99.90;;;;;;6153981;23;20485;-86
2022/04/12 02:50:42;;;;;;;47.42;23.80;;;8.20;99.90;;;;;;6154226;23;20013;-89
2022/04/12 02:53:07;;;;;;;37.75;19.88;;;8.20;99.90;;;;;;6153688;23;20065;-86
2022/04/12 02:55:34;;;;;;;54.97;26.23;;;8.20;99.90;;;;;;6154070;23;20100;-88
2022/04/12 02:58:00;;;;;;;46.33;21.55;;;8.20;99.90;;;;;;6153805;23;20037;-89
2022/04/12 03:00:25;;;;;;;47.85;25.17;;;8.20;99.90;;;;;;6153808;23;20088;-88
2022/04/12 03:02:51;;;;;;;50.53;26.77;;;8.20;99.90;;;;;;6153711;23;20004;-88
2022/04/12 03:05:17;;;;;;;52.38;25.58;;;8.20;99.90;;;;;;6153948;23;20013;-88
2022/04/12 03:07:43;;;;;;;48.65;23.20;;;8.20;99.90;;;;;;6153853;23;20013;-88
2022/04/12 03:10:09;;;;;;;59.58;28.05;;;8.20;99.90;;;;;;6153801;23;20001;-88
2022/04/12 03:12:34;;;;;;;52.50;26.38;;;8.20;99.90;;;;;;6153734;23;20013;-88
2022/04/12 03:15:02;;;;;;;51.60;25.02;;;8.20;99.90;;;;;;6153819;23;20001;-88
2022/04/12 03:17:28;;;;;;;60.25;27.65;;;8.20;99.90;;;;;;6153866;23;20088;-88
2022/04/12 03:19:53;;;;;;;54.92;27.08;;;8.20;99.90;;;;;;6153568;23;20009;-88
2022/04/12 03:22:19;;;;;;;47.22;25.83;;;8.20;99.90;;;;;;6153702;23;20006;-88
2022/04/12 03:24:47;;;;;;;57.97;28.77;;;8.30;99.90;;;;;;6153717;23;20389;-87
2022/04/12 03:27:13;;;;;;;58.10;27.73;;;8.30;99.90;;;;;;6153617;23;20017;-88
2022/04/12 03:29:39;;;;;;;57.75;27.50;;;8.40;99.90;;;;;;6153622;23;20013;-88
2022/04/12 03:32:05;;;;;;;58.00;27.75;;;8.40;99.90;;;;;;6153446;23;20338;-88
2022/04/12 03:34:31;;;;;;;54.80;28.20;;;8.50;99.90;;;;;;6153813;23;20104;-88
2022/04/12 03:36:58;;;;;;;57.97;27.65;;;8.50;99.90;;;;;;6153913;23;20088;-88
2022/04/12 03:39:25;;;;;;;52.00;26.80;;;8.50;99.90;;;;;;6153887;23;20033;-88
2022/04/12 03:41:52;;;;;;;59.17;27.65;;;8.50;99.90;;;;;;6153923;23;20009;-89
2022/04/12 03:44:18;;;;;;;48.38;24.80;;;8.50;99.90;;;;;;6153941;23;20006;-89
2022/04/12 03:46:44;;;;;;;51.85;27.77;;;8.50;99.90;;;;;;6153348;23;20052;-88
2022/04/12 03:49:10;;;;;;;57.78;27.75;;;8.50;99.90;;;;;;6153345;23;20509;-87
2022/04/12 03:51:37;;;;;;;59.85;27.70;;;8.50;99.90;;;;;;6153655;23;20078;-88
2022/04/12 03:54:05;;;;;;;54.53;28.40;;;8.50;99.90;;;;;;6153815;23;20001;-88
2022/04/12 03:56:31;;;;;;;53.60;27.45;;;8.50;99.90;;;;;;6154354;23;20005;-88
2022/04/12 03:59:01;;;;;;;54.90;26.20;;;8.40;99.90;;;;;;6155906;23;20005;-88
2022/04/12 04:01:28;;;;;;;52.13;27.30;;;8.50;99.90;;;;;;6153835;23;20092;-88
2022/04/12 04:03:58;;;;;;;50.33;26.42;;;8.40;99.90;;;;;;6153883;23;20009;-88
2022/04/12 04:06:24;;;;;;;63.47;27.80;;;8.40;99.90;;;;;;6153675;23;20009;-88
2022/04/12 04:08:50;;;;;;;60.53;27.33;;;8.40;99.90;;;;;;6154285;23;20048;-88
2022/04/12 04:11:16;;;;;;;53.78;27.27;;;8.30;99.90;;;;;;6153962;23;20009;-88
2022/04/12 04:13:42;;;;;;;62.45;28.27;;;8.30;99.90;;;;;;6154037;23;20509;-88
2022/04/12 04:16:08;;;;;;;58.58;28.40;;;8.30;99.90;;;;;;6155706;23;20144;-87
2022/04/12 04:18:34;;;;;;;54.95;27.83;;;8.30;99.90;;;;;;6155593;23;20013;-88
2022/04/12 04:21:01;;;;;;;54.47;28.05;;;8.20;99.90;;;;;;6155646;23;20076;-89
2022/04/12 04:23:26;;;;;;;52.75;27.27;;;8.20;99.90;;;;;;6155615;23;20025;-88
2022/04/12 04:25:52;;;;;;;62.05;29.35;;;8.20;99.90;;;;;;6155458;23;20006;-88
2022/04/12 04:28:29;;;;;;;56.08;28.27;;;8.20;99.90;;;;;;6155611;23;20001;-88
2022/04/12 04:30:56;;;;;;;52.78;25.98;;;8.20;99.90;;;;;;6156860;23;20006;-88
2022/04/12 04:33:22;;;;;;;52.67;24.52;;;8.20;99.90;;;;;;6155588;23;20006;-88
2022/04/12 04:35:48;;;;;;;51.70;27.60;;;8.20;99.90;;;;;;6180480;23;20014;-87
2022/04/12 04:38:15;;;;;;;62.40;28.90;;;8.20;99.90;;;;;;6155537;23;20408;-88
2022/04/12 04:40:42;;;;;;;65.13;30.42;;;8.10;99.90;;;;;;6155277;23;20029;-88
2022/04/12 04:43:08;;;;;;;57.00;28.60;;;8.10;99.90;;;;;;6155299;23;20013;-88
2022/04/12 04:45:35;;;;;;;44.15;23.38;;;8.00;99.90;;;;;;6155324;23;20457;-88
2022/04/12 04:48:02;;;;;;;54.83;25.65;;;8.00;99.90;;;;;;6155381;23;20019;-87
2022/04/12 04:50:32;;;;;;;61.80;27.85;;;8.00;99.90;;;;;;6155077;23;20073;-88
2022/04/12 04:53:09;;;;;;;57.17;26.60;;;8.00;99.90;;;;;;6157022;23;20010;-87
2022/04/12 04:55:36;;;;;;;53.42;26.83;;;8.00;99.90;;;;;;6155311;23;20500;-89
2022/04/12 04:58:03;;;;;;;40.55;22.20;;;8.00;99.90;;;;;;6179889;23;20104;-88
2022/04/12 05:00:31;;;;;;;49.20;25.27;;;8.00;99.90;;;;;;6155322;23;20342;-88
2022/04/12 05:02:59;;;;;;;61.70;26.15;;;7.90;99.90;;;;;;6155016;23;20028;-88
2022/04/12 05:05:25;;;;;;;60.85;28.73;;;7.90;99.90;;;;;;6155156;23;20009;-90
2022/04/12 05:07:54;;;;;;;40.60;19.80;;;7.90;99.90;;;;;;6155058;23;20013;-88
2022/04/12 05:10:22;;;;;;;44.63;22.08;;;7.90;99.90;;;;;;6155213;23;20055;-87
2022/04/12 05:12:48;;;;;;;63.88;30.48;;;7.80;99.90;;;;;;6155060;23;20009;-88
2022/04/12 05:15:14;;;;;;;59.58;28.80;;;7.80;99.90;;;;;;6155172;23;20005;-89
2022/04/12 05:17:40;;;;;;;56.08;25.25;;;7.80;99.90;;;;;;6156830;23;20006;-88
2022/04/12 05:20:08;;;;;;;54.72;26.85;;;7.70;99.90;;;;;;6155107;23;20024;-88
2022/04/12 05:22:34;;;;;;;43.72;22.42;;;7.70;99.90;;;;;;6154849;23;20012;-88
2022/04/12 05:24:59;;;;;;;55.33;28.65;;;7.70;99.90;;;;;;6154862;23;20005;-88
2022/04/12 05:27:39;;;;;;;57.80;28.35;;;7.70;99.90;;;;;;6156466;23;20036;-88
2022/04/12 05:30:07;;;;;;;56.78;26.90;;;7.70;99.90;;;;;;6154789;23;20005;-88
2022/04/12 05:32:34;;;;;;;44.95;21.42;;;7.70;99.90;;;;;;6154871;23;20079;-87
2022/04/12 05:35:00;;;;;;;45.33;21.45;;;7.70;99.90;;;;;;6155176;23;20047;-88
2022/04/12 05:37:25;;;;;;;56.55;27.23;;;7.60;99.90;;;;;;6156359;23;20092;-88
2022/04/12 05:39:51;;;;;;;56.05;27.35;;;7.60;99.90;;;;;;6154488;23;20002;-88
2022/04/12 05:42:16;;;;;;;68.72;30.58;;;7.60;99.90;;;;;;6154695;23;20092;-88
2022/04/12 05:44:44;;;;;;;63.35;28.45;;;7.60;99.90;;;;;;6155023;23;20001;-88
2022/04/12 05:47:13;;;;;;;64.15;28.67;;;7.50;99.90;;;;;;6155221;23;20028;-88
2022/04/12 05:49:38;;;;;;;48.60;22.83;;;7.40;99.90;;;;;;6154771;23;20006;-88
2022/04/12 05:52:04;;;;;;;64.18;28.73;;;7.40;99.90;;;;;;6154731;23;20079;-87
2022/04/12 05:54:30;;;;;;;61.85;28.73;;;7.40;99.90;;;;;;6154515;23;20438;-88
2022/04/12 05:56:56;;;;;;;73.35;29.15;;;7.40;99.90;;;;;;6154307;23;20021;-88
2022/04/12 05:59:22;;;;;;;72.35;29.15;;;7.40;99.90;;;;;;6154700;23;20054;-87
2022/04/12 06:01:49;;;;;;;66.57;28.15;;;7.40;99.90;;;;;;6155172;23;20017;-88
2022/04/12 06:04:14;;;;;;;62.80;29.02;;;7.40;99.90;;;;;;6155031;23;20005;-89
2022/04/12 06:06:41;;;;;;;69.93;30.40;;;7.50;99.90;;;;;;6155156;23;20005;-89
2022/04/12 06:09:07;;;;;;;58.53;27.45;;;7.50;99.90;;;;;;6153217;23;20044;-89
2022/04/12 06:11:33;;;;;;;68.45;29.35;;;7.50;99.90;;;;;;6153548;23;20013;-88
2022/04/12 06:13:59;;;;;;;57.30;24.92;;;7.50;99.90;;;;;;6154252;23;20005;-88
2022/04/12 06:16:25;;;;;;;55.58;26.17;;;7.50;99.90;;;;;;6154180;23;20002;-88
2022/04/12 06:18:51;;;;;;;71.90;29.50;;;7.50;99.90;;;;;;6154470;23;20005;-87
2022/04/12 06:21:16;;;;;;;56.55;25.42;;;7.50;99.90;;;;;;6154329;23;20070;-89
2022/04/12 06:23:43;;;;;;;68.57;29.80;;;7.50;99.90;;;;;;6152611;23;20002;-87
2022/04/12 06:26:09;;;;;;;62.00;27.70;;;7.50;99.90;;;;;;6152261;23;20009;-88
2022/04/12 06:28:35;;;;;;;67.63;30.17;;;7.60;99.90;;;;;;6152943;23;20428;-88
2022/04/12 06:31:01;;;;;;;61.63;29.75;;;7.60;99.90;;;;;;6152843;23;20006;-88
2022/04/12 06:33:27;;;;;;;71.85;30.80;;;7.60;99.90;;;;;;6153853;23;20433;-87
2022/04/12 06:35:53;;;;;;;71.93;31.85;;;7.60;99.90;;;;;;6153414;23;20009;-86
2022/04/12 06:38:19;;;;;;;63.55;29.15;;;7.70;99.90;;;;;;6154857;23;20077;-87
2022/04/12 06:40:45;;;;;;;76.22;33.00;;;7.70;99.90;;;;;;6154781;23;20520;-86
2022/04/12 06:43:12;;;;;;;70.88;32.28;;;7.80;99.90;;;;;;6178443;23;20045;-88
2022/04/12 06:45:38;;;;;;;72.72;31.13;;;7.80;99.90;;;;;;6153549;23;20002;-87
2022/04/12 06:48:04;;;;;;;80.75;33.15;;;7.80;99.90;;;;;;6153646;23;20010;-88
2022/04/12 06:50:32;;;;;;;68.50;31.52;;;7.80;99.90;;;;;;6153849;23;20010;-88
2022/04/12 06:52:58;;;;;;;73.28;33.35;;;7.80;99.90;;;;;;6154271;23;20123;-88
2022/04/12 06:55:25;;;;;;;65.22;28.77;;;7.90;99.90;;;;;;6178759;23;20008;-88
2022/04/12 06:57:51;;;;;;;77.32;31.52;;;7.90;99.90;;;;;;6153416;23;20044;-87
2022/04/12 07:00:17;;;;;;;73.25;32.75;;;7.90;99.90;;;;;;6152749;23;20425;-88
2022/04/12 07:02:44;;;;;;;78.22;33.88;;;8.00;99.90;;;;;;6152753;23;20009;-88
2022/04/12 07:05:10;;;;;;;87.78;34.72;;;8.00;99.90;;;;;;6153044;23;20017;-88
2022/04/12 07:07:40;;;;;;;75.63;34.25;;;8.00;99.90;;;;;;6152810;23;20025;-88
2022/04/12 07:10:08;;;;;;;81.82;34.50;;;8.10;99.90;;;;;;6151841;23;20091;-89
2022/04/12 07:12:33;;;;;;;75.28;32.85;;;8.20;99.90;;;;;;6152551;23;20290;-88
2022/04/12 07:14:59;;;;;;;75.53;33.38;;;8.20;99.90;;;;;;6153372;23;20002;-88
2022/04/12 07:17:25;;;;;;;79.80;34.30;;;8.20;99.90;;;;;;6151544;23;20493;-88
2022/04/12 07:19:51;;;;;;;72.30;32.30;;;8.30;99.90;;;;;;6154325;23;20456;-89
2022/04/12 07:22:16;;;;;;;72.78;33.00;;;8.30;99.90;;;;;;6153034;23;20092;-88
2022/04/12 07:24:42;;;;;;;72.18;32.17;;;8.30;99.90;;;;;;6154324;23;20370;-89
2022/04/12 07:27:08;;;;;;;71.07;32.83;;;8.40;99.90;;;;;;6154478;23;20010;-91
2022/04/12 07:29:34;;;;;;;69.72;30.75;;;8.50;99.90;;;;;;6154405;23;20045;-88
2022/04/12 07:32:00;;;;;;;76.45;31.15;;;8.50;99.90;;;;;;6154332;23;20006;-88
2022/04/12 07:34:26;;;;;;;85.90;35.58;;;8.50;99.90;;;;;;6157635;23;20418;-88
2022/04/12 07:36:55;;;;;;;77.55;33.15;;;8.60;99.90;;;;;;6156140;23;20001;-87
2022/04/12 07:39:22;;;;;;;51.80;25.35;;;8.60;99.90;;;;;;6152600;23;20005;-88
2022/04/12 07:41:48;;;;;;;57.10;25.80;;;8.60;99.90;;;;;;6152865;23;20036;-89
2022/04/12 07:44:16;;;;;;;70.28;31.20;;;8.70;99.90;;;;;;6156212;23;20319;-89
2022/04/12 07:46:41;;;;;;;66.30;27.70;;;8.70;99.90;;;;;;6154912;23;20078;-90
2022/04/12 07:49:08;;;;;;;76.72;33.00;;;8.70;99.90;;;;;;6154160;23;20009;-89
2022/04/12 07:51:33;;;;;;;67.07;29.27;;;8.80;99.90;;;;;;6157135;23;20068;-88
2022/04/12 07:54:01;;;;;;;78.10;31.58;;;8.80;99.90;;;;;;6155712;23;20421;-88
2022/04/12 07:56:27;;;;;;;73.47;30.90;;;8.80;99.90;;;;;;6155613;23;20029;-89
2022/04/12 07:58:53;;;;;;;71.30;33.42;;;8.80;99.90;;;;;;6155566;23;20434;-88
2022/04/12 08:01:19;;;;;;;68.03;30.17;;;8.80;99.90;;;;;;6155587;23;20005;-88
2022/04/12 08:03:45;;;;;;;73.57;31.70;;;8.80;99.90;;;;;;6155156;23;20008;-89
2022/04/12 08:06:11;;;;;;;78.47;33.58;;;8.90;99.90;;;;;;6155126;23;20006;-90
2022/04/12 08:08:36;;;;;;;70.65;30.88;;;8.90;99.90;;;;;;6155344;23;20452;-89
2022/04/12 08:11:02;;;;;;;59.40;26.90;;;8.90;99.90;;;;;;6155454;23;20008;-89
2022/04/12 08:13:28;;;;;;;75.07;31.70;;;8.90;99.90;;;;;;6155403;23;20079;-90
2022/04/12 08:15:54;;;;;;;68.65;30.90;;;8.90;99.90;;;;;;6155088;23;20006;-90
2022/04/12 08:18:19;;;;;;;76.00;33.63;;;9.00;99.90;;;;;;6179460;23;20452;-88
2022/04/12 08:20:49;;;;;;;77.03;32.88;;;9.00;99.90;;;;;;6154505;23;20009;-91
2022/04/12 08:23:16;;;;;;;77.85;32.75;;;9.00;99.90;;;;;;6154796;23;20008;-90
2022/04/12 08:25:42;;;;;;;83.82;33.22;;;9.00;99.90;;;;;;6154371;23;20029;-90
2022/04/12 08:28:08;;;;;;;77.38;31.23;;;9.00;99.90;;;;;;6154939;23;20048;-87
2022/04/12 08:30:35;;;;;;;80.30;34.22;;;9.00;99.90;;;;;;6155193;23;20009;-91
2022/04/12 08:33:02;;;;;;;75.40;32.92;;;9.00;99.90;;;;;;6155187;23;20032;-91
2022/04/12 08:35:28;;;;;;;74.68;29.45;;;9.10;99.90;;;;;;6155469;23;20010;-92
2022/04/12 08:37:54;;;;;;;70.05;30.10;;;9.10;99.90;;;;;;6155762;23;20012;-90
2022/04/12 08:40:20;;;;;;;67.88;30.88;;;9.00;99.90;;;;;;6156006;23;20048;-90
2022/04/12 08:42:47;;;;;;;60.78;28.88;;;9.10;99.90;;;;;;6155981;23;20429;-91
2022/04/12 08:45:13;;;;;;;76.45;29.55;;;9.10;99.90;;;;;;6155556;23;20029;-92
2022/04/12 08:47:39;;;;;;;73.75;29.70;;;9.10;99.90;;;;;;6155805;23;20013;-92
2022/04/12 08:50:06;;;;;;;65.00;26.73;;;9.20;99.90;;;;;;6155770;23;20093;-91
2022/04/12 08:52:33;;;;;;;60.72;28.17;;;9.20;99.90;;;;;;6156085;23;20001;-93
2022/04/12 08:55:01;;;;;;;57.75;28.30;;;9.20;99.90;;;;;;6155739;23;20002;-94
2022/04/12 08:57:27;;;;;;;69.55;30.30;;;9.30;99.90;;;;;;6155372;23;20072;-92
2022/04/12 08:59:53;;;;;;;65.88;30.17;;;9.20;99.90;;;;;;6180473;23;20010;-92
2022/04/12 09:02:18;;;;;;;64.63;27.92;;;9.20;99.90;;;;;;6156503;23;20048;-93
2022/04/12 09:04:44;;;;;;;66.05;29.30;;;9.20;99.90;;;;;;6155861;23;20008;-93
2022/04/12 09:07:11;;;;;;;63.50;25.65;;;9.20;99.90;;;;;;6155625;23;20015;-93
2022/04/12 09:09:38;;;;;;;57.97;26.42;;;9.20;99.90;;;;;;6155998;23;20091;-93
2022/04/12 09:12:09;;;;;;;68.07;29.65;;;9.30;99.90;;;;;;6155826;23;20010;-93
2022/04/12 09:14:52;;;;;;;79.65;33.20;;;9.30;99.90;;;;;;6155507;23;20341;-93
2022/04/12 09:17:33;;;;;;;138.98;38.33;;;9.30;99.90;;;;;;6155384;23;20001;-92
2022/04/12 09:19:59;;;;;;;82.57;34.72;;;9.30;99.90;;;;;;6155250;23;20005;-92
2022/04/12 09:22:27;;;;;;;80.53;35.00;;;9.30;99.90;;;;;;6155605;23;20054;-92
2022/04/12 09:25:01;;;;;;;91.03;37.65;;;9.30;99.90;;;;;;6155821;23;20009;-93
2022/04/12 09:27:28;;;;;;;88.22;34.67;;;9.20;99.90;;;;;;6155978;23;20044;-92
2022/04/12 09:30:04;;;;;;;84.93;33.45;;;9.30;99.90;;;;;;6182601;23;20435;-93
2022/04/12 09:32:34;;;;;;;84.50;34.13;;;9.20;99.90;;;;;;6156119;23;20009;-92
2022/04/12 09:35:00;;;;;;;90.60;38.10;;;9.30;99.90;;;;;;6156548;23;20509;-91
2022/04/12 09:37:28;;;;;;;89.13;35.42;;;9.30;99.90;;;;;;6157663;23;20017;-92
2022/04/12 09:40:01;;;;;;;90.25;39.00;;;9.30;99.90;;;;;;6160326;23;20001;-91
2022/04/12 09:42:49;;;;;;;89.07;36.97;;;9.30;99.90;;;;;;6159776;23;20036;-92
2022/04/12 09:45:30;;;;;;;89.30;36.30;;;9.30;99.90;;;;;;6190694;23;20006;-90
2022/04/12 09:48:01;;;;;;;92.68;36.88;;;9.30;99.90;;;;;;6158416;23;20013;-91
2022/04/12 09:50:29;;;;;;;95.45;40.92;;;9.40;99.90;;;;;;6156227;23;20136;-91
2022/04/12 09:53:00;;;;;;;86.32;36.45;;;9.40;99.90;;;;;;6154799;23;20005;-90
2022/04/12 09:55:40;;;;;;;85.15;35.13;;;9.30;99.90;;;;;;6155363;23;20031;-90
2022/04/12 09:58:13;;;;;;;91.30;36.47;;;9.30;99.90;;;;;;6154679;23;20377;-90
2022/04/12 10:00:39;;;;;;;106.72;38.58;;;9.30;99.90;;;;;;6154620;23;20072;-90
2022/04/12 10:03:10;;;;;;;93.07;37.63;;;9.30;99.90;;;;;;6155646;23;20033;-90
2022/04/12 10:05:36;;;;;;;86.22;36.80;;;9.30;99.90;;;;;;6159312;23;20021;-91
2022/04/12 10:08:04;;;;;;;87.20;37.15;;;9.20;99.90;;;;;;6156251;23;20014;-91
2022/04/12 10:10:30;;;;;;;88.93;35.40;;;9.20;99.90;;;;;;6157013;23;20124;-90
2022/04/12 10:12:57;;;;;;;88.10;38.00;;;9.20;99.90;;;;;;6154503;23;20009;-90
2022/04/12 10:15:25;;;;;;;88.95;36.63;;;9.30;99.90;;;;;;6153998;23;20006;-90
2022/04/12 10:17:51;;;;;;;86.68;36.88;;;9.30;99.90;;;;;;6153184;23;20096;-90
2022/04/12 10:20:18;;;;;;;83.95;36.38;;;9.30;99.90;;;;;;6154222;23;20001;-90
2022/04/12 10:22:45;;;;;;;86.00;39.10;;;9.30;99.90;;;;;;6154538;23;20036;-90
2022/04/12 10:25:15;;;;;;;97.85;38.20;;;9.30;99.90;;;;;;6154350;23;20103;-90
2022/04/12 10:27:41;;;;;;;79.13;33.83;;;9.40;99.90;;;;;;6153751;23;20024;-89
2022/04/12 10:30:16;;;;;;;83.32;33.05;;;9.40;99.90;;;;;;6153179;23;20013;-89
2022/04/12 10:33:01;;;;;;;76.78;33.20;;;9.40;99.90;;;;;;6153640;23;20028;-89
2022/04/12 10:35:42;;;;;;;81.45;34.72;;;9.40;99.90;;;;;;6153913;23;20010;-89
2022/04/12 10:38:09;;;;;;;81.18;35.45;;;9.40;99.90;;;;;;6153367;23;20341;-90
2022/04/12 10:40:35;;;;;;;79.50;34.63;;;9.50;99.90;;;;;;6153774;23;20017;-90
2022/04/12 10:43:05;;;;;;;81.53;34.25;;;9.50;99.90;;;;;;6154643;23;20005;-91
2022/04/12 10:45:32;;;;;;;93.40;37.40;;;9.50;99.90;;;;;;6154428;23;20006;-91
2022/04/12 10:48:00;;;;;;;86.25;35.25;;;9.60;99.90;;;;;;6154421;23;20104;-91
2022/04/12 10:50:26;;;;;;;89.65;35.33;;;9.60;99.90;;;;;;6155180;23;20006;-89
2022/04/12 10:52:52;;;;;;;75.47;32.28;;;9.60;99.90;;;;;;6179844;23;20117;-90
2022/04/12 10:55:23;;;;;;;76.53;34.55;;;9.60;99.90;;;;;;6154276;23;20014;-90
2022/04/12 10:57:51;;;;;;;72.82;30.10;;;9.60;99.90;;;;;;6154529;23;20048;-90
2022/04/12 11:00:19;;;;;;;85.35;32.88;;;9.60;99.90;;;;;;6154449;23;20014;-90
2022/04/12 11:02:56;;;;;;;72.22;32.45;;;9.60;99.90;;;;;;6154585;23;20005;-90
2022/04/12 11:05:37;;;;;;;65.38;32.33;;;9.70;99.90;;;;;;6155651;23;20084;-90
2022/04/12 11:08:15;;;;;;;;;;;9.70;99.90;;;;;;6156874;23;20024;-89
2022/04/12 11:10:55;;;;;;;70.53;32.35;;;9.70;99.90;;;;;;6180180;23;19987;-90
2022/04/12 11:13:28;;;;;;;75.55;33.30;;;9.80;99.90;;;;;;6154612;23;20030;-88
2022/04/12 11:15:55;;;;;;;;;;;9.80;99.90;;;;;;6155600;23;20011;-89
2022/04/12 11:18:21;;;;;;;70.90;31.00;;;9.80;99.90;;;;;;6157066;23;19979;-90
2022/04/12 11:21:01;;;;;;;79.32;32.67;;;9.80;99.90;;;;;;6153784;23;20013;-89
2022/04/12 11:23:51;;;;;;;76.82;32.42;;;9.90;99.90;;;;;;6154398;23;20136;-89
2022/04/12 11:26:33;;;;;;;82.32;32.95;;;9.90;99.90;;;;;;6153558;23;20009;-89
2022/04/12 11:29:00;;;;;;;77.38;33.15;;;9.80;99.90;;;;;;6153679;23;20067;-90
2022/04/12 11:31:26;;;;;;;77.07;33.78;;;9.90;99.90;;;;;;6153812;23;20092;-92
2022/04/12 11:33:51;;;;;;;78.07;34.58;;;9.80;99.90;;;;;;6153005;23;20010;-89
2022/04/12 11:36:20;;;;;;;79.18;34.05;;;9.80;99.90;;;;;;6152710;23;20010;-89
2022/04/12 11:38:47;;;;;;;79.75;33.40;;;9.90;99.90;;;;;;6153903;23;20524;-88
2022/04/12 11:41:14;;;;;;;75.28;33.70;;;9.90;99.90;;;;;;6160261;23;20031;-88
2022/04/12 11:43:40;;;;;;;68.93;33.20;;;9.90;99.90;;;;;;6154260;23;20017;-88
2022/04/12 11:46:05;;;;;;;76.38;33.05;;;9.90;99.90;;;;;;6152535;23;20032;-91
2022/04/12 11:48:32;;;;;;;78.22;35.58;;;9.90;99.90;;;;;;6152059;23;20010;-88
2022/04/12 11:51:04;;;;;;;64.82;29.77;;;9.90;99.90;;;;;;6152291;23;20101;-88
2022/04/12 11:53:30;;;;;;;69.18;33.17;;;10.00;99.90;;;;;;6152825;23;20433;-88
2022/04/12 11:56:03;;;;;;;63.90;30.50;;;10.10;99.90;;;;;;6152505;23;20010;-88
2022/04/12 11:58:30;;;;;;;71.65;31.38;;;10.10;99.90;;;;;;6152784;23;20018;-88
2022/04/12 12:00:56;;;;;;;67.07;30.92;;;10.20;99.90;;;;;;6152966;23;20002;-89
2022/04/12 12:03:22;;;;;;;70.45;32.95;;;10.20;99.90;;;;;;6152987;23;20005;-88
2022/04/12 12:05:48;;;;;;;68.93;30.40;;;10.20;99.90;;;;;;6153421;23;20016;-90
2022/04/12 12:08:19;;;;;;;74.55;32.13;;;10.30;99.90;;;;;;6153004;23;20022;-90
2022/04/12 12:10:45;;;;;;;62.35;29.98;;;10.30;99.90;;;;;;6153188;23;20472;-90
2022/04/12 12:13:11;;;;;;;67.78;30.55;;;10.40;99.90;;;;;;6152880;23;20013;-90
2022/04/12 12:15:37;;;;;;;70.53;32.70;;;10.40;99.90;;;;;;6154015;23;20060;-89
2022/04/12 12:18:06;;;;;;;63.90;30.38;;;10.50;99.90;;;;;;6153147;23;20013;-89
2022/04/12 12:20:35;;;;;;;67.25;31.48;;;10.60;99.90;;;;;;6153524;23;20005;-90
2022/04/12 12:23:06;;;;;;;65.88;31.95;;;10.60;99.90;;;;;;6153162;23;20006;-89
2022/04/12 12:25:51;;;;;;;63.58;30.90;;;10.70;99.90;;;;;;6153542;23;20012;-90
2022/04/12 12:28:25;;;;;;;70.28;31.90;;;10.70;99.90;;;;;;6153157;23;20021;-88
2022/04/12 12:31:00;;;;;;;71.07;32.45;;;10.70;99.90;;;;;;6153680;23;20038;-89
2022/04/12 12:33:44;;;;;;;62.08;31.40;;;10.80;99.90;;;;;;6153680;23;20220;-89
2022/04/12 12:36:18;;;;;;;72.85;34.42;;;10.80;99.90;;;;;;6154798;23;20032;-90
2022/04/12 12:38:44;;;;;;;75.95;34.85;;;10.90;99.90;;;;;;6153895;23;20464;-89
2022/04/12 12:41:11;;;;;;;73.88;34.85;;;11.00;99.90;;;;;;6155480;23;19997;-89